createdAt,value
2022-08-11T00:00:11.160Z,68.35
2022-08-11T00:01:11.145Z,67.55
2022-08-11T00:02:15.121Z,68.25
2022-08-11T00:03:11.870Z,67.95
2022-08-11T00:04:11.131Z,68.35
2022-08-11T00:05:17.694Z,67.95
2022-08-11T00:06:11.699Z,67.75
2022-08-11T00:07:11.077Z,67.65
2022-08-11T00:08:11.082Z,68.15
2022-08-11T00:09:11.074Z,68.55
2022-08-11T00:10:11.699Z,68.85
2022-08-11T00:11:11.038Z,69.15
2022-08-11T00:12:11.024Z,68.95
2022-08-11T00:13:11.028Z,68.99
2022-08-11T00:14:12.027Z,68.99
2022-08-11T00:15:11.018Z,69.09
2022-08-11T00:16:10.986Z,69.69
2022-08-11T00:17:10.976Z,69.49
2022-08-11T00:18:11.227Z,69.79
2022-08-11T00:19:13.701Z,69.79
2022-08-11T00:20:16.197Z,70.09
2022-08-11T00:21:11.923Z,70.03
2022-08-11T00:22:11.249Z,70.50
2022-08-11T00:23:10.920Z,70.03
2022-08-11T00:24:10.905Z,69.99
2022-08-11T00:25:11.237Z,70.03
2022-08-11T00:26:13.699Z,69.82
2022-08-11T00:27:25.702Z,70.12
2022-08-11T00:28:11.695Z,70.12
2022-08-11T00:29:10.870Z,70.03
2022-08-11T00:30:11.237Z,70.23
2022-08-11T00:31:10.816Z,70.12
2022-08-11T00:32:11.701Z,70.03
2022-08-11T00:33:10.790Z,70.43
2022-08-11T00:34:13.704Z,70.12
2022-08-11T00:35:55.472Z,69.92
2022-08-11T00:36:11.776Z,70.16
2022-08-11T00:37:10.762Z,70.26
2022-08-11T00:38:10.734Z,70.36
2022-08-11T00:39:31.759Z,70.66
2022-08-11T00:40:10.721Z,70.96
2022-08-11T00:41:10.749Z,71.16
2022-08-11T00:42:11.196Z,71.16
2022-08-11T00:43:11.548Z,71.26
2022-08-11T00:44:12.196Z,71.26
2022-08-11T00:45:10.657Z,71.87
2022-08-11T00:46:11.221Z,71.87
2022-08-11T00:47:10.729Z,70.76
2022-08-11T00:48:11.201Z,70.86
2022-08-11T00:49:17.204Z,71.56
2022-08-11T00:50:10.603Z,71.87
2022-08-11T00:51:10.597Z,71.97
2022-08-11T00:52:10.752Z,71.90
2022-08-11T00:53:10.606Z,71.36
2022-08-11T00:54:10.565Z,71.16
2022-08-11T00:55:10.560Z,71.16
2022-08-11T00:56:10.545Z,70.89
2022-08-11T00:57:36.093Z,71.00
2022-08-11T00:58:11.533Z,70.29
2022-08-11T00:59:26.427Z,70.39
2022-08-11T01:00:11.496Z,71.00
2022-08-11T01:01:10.657Z,70.59
2022-08-11T01:02:13.204Z,70.29
2022-08-11T01:03:10.480Z,70.29
2022-08-11T01:04:11.201Z,70.50
2022-08-11T01:05:13.197Z,70.59
2022-08-11T01:06:10.425Z,70.50
2022-08-11T01:08:02.345Z,70.19
2022-08-11T01:08:12.692Z,70.50
2022-08-11T01:09:10.408Z,70.09
2022-08-11T01:10:14.202Z,70.36
2022-08-11T01:11:10.730Z,70.39
2022-08-11T01:12:13.205Z,70.89
2022-08-11T01:13:10.352Z,71.20
2022-08-11T01:14:10.355Z,71.20
2022-08-11T01:15:10.750Z,71.09
2022-08-11T01:16:11.227Z,71.40
2022-08-11T01:17:17.204Z,71.70
2022-08-11T01:18:11.213Z,71.90
2022-08-11T01:19:10.293Z,71.90
2022-08-11T01:20:47.406Z,72.10
2022-08-11T01:21:12.230Z,72.03
2022-08-11T01:22:11.213Z,72.71
2022-08-11T01:23:12.541Z,72.03
2022-08-11T01:24:12.209Z,72.44
2022-08-11T01:25:16.757Z,72.44
2022-08-11T01:26:10.215Z,72.24
2022-08-11T01:27:18.886Z,71.83
2022-08-11T01:28:17.716Z,72.34
2022-08-11T01:29:10.189Z,72.94
2022-08-11T01:30:12.704Z,72.44
2022-08-11T01:31:10.231Z,72.47
2022-08-11T01:32:10.165Z,72.03
2022-08-11T01:33:10.731Z,72.84
2022-08-11T01:34:10.127Z,70.73
2022-08-11T01:35:10.150Z,72.88
2022-08-11T01:36:10.140Z,72.34
2022-08-11T01:37:10.120Z,71.94
2022-08-11T01:38:10.093Z,71.67
2022-08-11T01:39:10.199Z,71.43
2022-08-11T01:40:16.709Z,71.36
2022-08-11T01:41:10.060Z,71.03
2022-08-11T01:42:10.702Z,71.33
2022-08-11T01:43:10.236Z,71.83
2022-08-11T01:44:12.937Z,71.43
2022-08-11T01:45:10.025Z,71.33
2022-08-11T01:46:10.021Z,71.16
2022-08-11T01:47:09.999Z,71.13
2022-08-11T01:48:10.719Z,71.03
2022-08-11T01:50:02.882Z,71.53
2022-08-11T01:50:11.033Z,71.77
2022-08-11T01:51:09.969Z,71.56
2022-08-11T01:52:11.707Z,71.16
2022-08-11T01:53:09.935Z,71.53
2022-08-11T01:54:09.934Z,71.06
2022-08-11T01:55:09.900Z,70.36
2022-08-11T01:56:12.710Z,70.16
2022-08-11T01:57:09.891Z,70.36
2022-08-11T01:58:09.866Z,70.96
2022-08-11T01:59:10.750Z,70.66
2022-08-11T02:00:09.867Z,70.26
2022-08-11T02:01:09.923Z,70.46
2022-08-11T02:02:09.847Z,70.16
2022-08-11T02:03:10.821Z,70.36
2022-08-11T02:04:09.808Z,70.66
2022-08-11T02:05:09.818Z,70.66
2022-08-11T02:06:09.791Z,70.36
2022-08-11T02:07:09.771Z,70.26
2022-08-11T02:08:11.672Z,70.26
2022-08-11T02:09:09.759Z,70.36
2022-08-11T02:10:09.754Z,70.16
2022-08-11T02:11:09.774Z,70.86
2022-08-11T02:12:09.717Z,70.66
2022-08-11T02:13:09.813Z,70.86
2022-08-11T02:14:10.236Z,70.86
2022-08-11T02:15:09.699Z,70.86
2022-08-11T02:16:09.766Z,70.96
2022-08-11T02:17:10.217Z,70.86
2022-08-11T02:18:09.641Z,71.16
2022-08-11T02:19:16.326Z,71.47
2022-08-11T02:20:10.215Z,71.50
2022-08-11T02:21:10.694Z,71.56
2022-08-11T02:22:24.230Z,72.20
2022-08-11T02:23:41.062Z,72.20
2022-08-11T02:24:10.586Z,72.11
2022-08-11T02:25:09.738Z,72.81
2022-08-11T02:26:10.213Z,72.61
2022-08-11T02:27:09.584Z,73.32
2022-08-11T02:28:09.552Z,73.52
2022-08-11T02:29:09.546Z,73.52
2022-08-11T02:30:09.526Z,73.52
2022-08-11T02:31:09.533Z,73.65
2022-08-11T02:32:24.610Z,73.85
2022-08-11T02:33:10.498Z,73.55
2022-08-11T02:34:10.229Z,73.14
2022-08-11T02:35:10.220Z,73.85
2022-08-11T02:36:09.455Z,74.15
2022-08-11T02:37:09.452Z,73.75
2022-08-11T02:38:09.747Z,73.45
2022-08-11T02:39:09.471Z,73.65
2022-08-11T02:40:16.231Z,73.05
2022-08-11T02:41:09.418Z,73.05
2022-08-11T02:42:35.165Z,73.35
2022-08-11T02:43:10.763Z,73.52
2022-08-11T02:44:12.230Z,73.55
2022-08-11T02:45:12.221Z,73.35
2022-08-11T02:46:09.392Z,73.85
2022-08-11T02:47:10.345Z,73.65
2022-08-11T02:48:09.349Z,73.14
2022-08-11T02:49:10.224Z,73.45
2022-08-11T02:50:09.304Z,73.14
2022-08-11T02:51:09.286Z,74.05
2022-08-11T02:52:10.227Z,73.55
2022-08-11T02:53:10.221Z,73.45
2022-08-11T02:54:09.280Z,73.85
2022-08-11T02:55:09.297Z,73.58
2022-08-11T02:56:09.238Z,73.68
2022-08-11T02:57:11.299Z,74.35
2022-08-11T02:58:09.728Z,73.68
2022-08-11T02:59:11.729Z,74.46
2022-08-11T03:00:09.193Z,73.88
2022-08-11T03:01:09.206Z,73.38
2022-08-11T03:02:15.727Z,73.99
2022-08-11T03:03:09.169Z,74.49
2022-08-11T03:04:09.170Z,74.19
2022-08-11T03:05:09.162Z,74.19
2022-08-11T03:06:09.722Z,73.58
2022-08-11T03:07:28.931Z,74.90
2022-08-11T03:08:10.110Z,74.99
2022-08-11T03:09:11.730Z,74.99
2022-08-11T03:10:09.088Z,74.90
2022-08-11T03:11:09.096Z,74.99
2022-08-11T03:12:09.733Z,75.43
2022-08-11T03:13:09.042Z,75.10
2022-08-11T03:14:09.033Z,75.13
2022-08-11T03:15:09.046Z,75.10
2022-08-11T03:16:10.084Z,75.13
2022-08-11T03:17:09.001Z,75.34
2022-08-11T03:18:09.038Z,75.60
2022-08-11T03:19:08.981Z,75.63
2022-08-11T03:20:09.263Z,75.30
2022-08-11T03:21:08.960Z,75.74
2022-08-11T03:22:08.953Z,75.23
2022-08-11T03:23:19.806Z,75.63
2022-08-11T03:24:08.928Z,76.34
2022-08-11T03:25:12.917Z,76.64
2022-08-11T03:26:08.909Z,74.93
2022-08-11T03:27:08.901Z,75.43
2022-08-11T03:28:08.886Z,75.47
2022-08-11T03:29:08.878Z,76.18
2022-08-11T03:30:08.882Z,75.54
2022-08-11T03:31:08.849Z,76.38
2022-08-11T03:32:08.842Z,75.98
2022-08-11T03:33:08.845Z,76.68
2022-08-11T03:34:08.830Z,76.48
2022-08-11T03:35:08.816Z,76.58
2022-08-11T03:36:08.820Z,75.67
2022-08-11T03:37:16.326Z,75.63
2022-08-11T03:38:09.780Z,75.43
2022-08-11T03:39:16.829Z,75.87
2022-08-11T03:40:08.769Z,76.18
2022-08-11T03:42:02.139Z,75.47
2022-08-11T03:42:10.394Z,75.67
2022-08-11T03:43:08.721Z,75.98
2022-08-11T03:44:08.730Z,75.77
2022-08-11T03:45:09.226Z,76.48
2022-08-11T03:46:08.720Z,76.58
2022-08-11T03:47:09.236Z,76.48
2022-08-11T03:48:08.665Z,76.64
2022-08-11T03:49:08.655Z,76.68
2022-08-11T03:50:23.231Z,76.58
2022-08-11T03:51:09.673Z,76.28
2022-08-11T03:52:08.636Z,76.38
2022-08-11T03:53:08.615Z,76.58
2022-08-11T03:54:08.601Z,76.88
2022-08-11T03:55:08.590Z,76.98
2022-08-11T03:56:08.598Z,77.12
2022-08-11T03:57:08.574Z,76.92
2022-08-11T03:58:08.757Z,77.32
2022-08-11T03:59:08.588Z,76.82
2022-08-11T04:00:08.534Z,77.42
2022-08-11T04:01:08.568Z,77.53
2022-08-11T04:02:08.521Z,77.42
2022-08-11T04:03:09.236Z,77.42
2022-08-11T04:04:08.497Z,77.62
2022-08-11T04:05:08.480Z,77.93
2022-08-11T04:06:08.475Z,77.93
2022-08-11T04:07:09.244Z,77.53
2022-08-11T04:08:09.443Z,77.62
2022-08-11T04:09:08.455Z,76.92
2022-08-11T04:10:08.427Z,76.82
2022-08-11T04:11:08.440Z,77.42
2022-08-11T04:12:08.402Z,78.13
2022-08-11T04:13:09.417Z,78.03
2022-08-11T04:14:08.381Z,77.53
2022-08-11T04:15:08.378Z,77.62
2022-08-11T04:16:11.105Z,77.83
2022-08-11T04:17:08.764Z,78.23
2022-08-11T04:18:08.340Z,77.73
2022-08-11T04:19:08.333Z,77.93
2022-08-11T04:20:08.337Z,77.53
2022-08-11T04:21:08.324Z,77.53
2022-08-11T04:22:08.291Z,76.82
2022-08-11T04:23:08.307Z,77.32
2022-08-11T04:24:34.527Z,76.92
2022-08-11T04:25:10.228Z,77.53
2022-08-11T04:26:18.510Z,77.53
2022-08-11T04:27:10.435Z,77.83
2022-08-11T04:28:28.957Z,78.13
2022-08-11T04:29:09.752Z,78.23
2022-08-11T04:30:11.957Z,77.93
2022-08-11T04:31:10.103Z,78.63
2022-08-11T04:32:08.194Z,78.43
2022-08-11T04:33:08.189Z,78.84
2022-08-11T04:34:08.194Z,78.43
2022-08-11T04:35:08.157Z,78.43
2022-08-11T04:36:22.747Z,77.83
2022-08-11T04:37:08.145Z,77.12
2022-08-11T04:38:08.130Z,77.73
2022-08-11T04:39:08.204Z,77.93
2022-08-11T04:40:08.097Z,77.93
2022-08-11T04:41:08.079Z,78.33
2022-08-11T04:42:08.081Z,77.83
2022-08-11T04:43:08.094Z,77.42
2022-08-11T04:44:08.067Z,77.83
2022-08-11T04:45:08.046Z,78.03
2022-08-11T04:46:08.031Z,77.22
2022-08-11T04:47:08.031Z,76.62
2022-08-11T04:48:08.008Z,77.12
2022-08-11T04:49:08.013Z,76.92
2022-08-11T04:50:08.008Z,76.51
2022-08-11T04:51:16.971Z,76.18
2022-08-11T04:52:09.756Z,76.58
2022-08-11T04:53:07.952Z,76.38
2022-08-11T04:54:07.938Z,76.38
2022-08-11T04:55:07.928Z,76.38
2022-08-11T04:56:07.955Z,76.38
2022-08-11T04:57:07.953Z,76.78
2022-08-11T04:58:07.907Z,76.38
2022-08-11T04:59:07.884Z,76.68
2022-08-11T05:00:07.897Z,77.79
2022-08-11T05:01:07.896Z,77.28
2022-08-11T05:02:16.990Z,77.49
2022-08-11T05:03:08.846Z,77.28
2022-08-11T05:04:07.836Z,77.19
2022-08-11T05:05:07.840Z,76.84
2022-08-11T05:06:07.809Z,77.28
2022-08-11T05:07:07.829Z,76.88
2022-08-11T05:08:07.792Z,76.88
2022-08-11T05:09:07.778Z,76.75
2022-08-11T05:10:07.786Z,76.24
2022-08-11T05:11:07.773Z,76.34
2022-08-11T05:12:07.748Z,76.54
2022-08-11T05:13:07.740Z,76.75
2022-08-11T05:14:07.745Z,76.44
2022-08-11T05:15:07.709Z,76.34
2022-08-11T05:16:07.702Z,75.54
2022-08-11T05:17:07.716Z,76.54
2022-08-11T05:18:07.679Z,76.04
2022-08-11T05:19:07.671Z,76.04
2022-08-11T05:20:07.679Z,74.79
2022-08-11T05:21:07.649Z,75.60
2022-08-11T05:22:07.641Z,76.20
2022-08-11T05:23:07.645Z,75.20
2022-08-11T05:24:07.615Z,75.60
2022-08-11T05:25:07.610Z,75.10
2022-08-11T05:26:44.378Z,75.20
2022-08-11T05:27:13.355Z,75.30
2022-08-11T05:28:08.567Z,75.20
2022-08-11T05:29:19.197Z,74.76
2022-08-11T05:30:08.580Z,75.16
2022-08-11T05:31:07.541Z,75.36
2022-08-11T05:32:07.525Z,75.06
2022-08-11T05:33:07.517Z,75.56
2022-08-11T05:34:07.489Z,75.56
2022-08-11T05:35:07.621Z,75.06
2022-08-11T05:36:07.560Z,75.67
2022-08-11T05:37:25.569Z,75.16
2022-08-11T05:38:08.472Z,74.76
2022-08-11T05:39:07.503Z,73.95
2022-08-11T05:40:07.491Z,74.62
2022-08-11T05:41:07.426Z,73.41
2022-08-11T05:42:29.784Z,73.32
2022-08-11T05:43:09.245Z,73.82
2022-08-11T05:44:20.282Z,73.32
2022-08-11T05:45:15.776Z,72.81
2022-08-11T05:46:12.812Z,73.48
2022-08-11T05:47:07.372Z,72.91
2022-08-11T05:48:07.363Z,73.28
2022-08-11T05:49:07.342Z,73.68
2022-08-11T05:50:07.346Z,72.77
2022-08-11T05:51:10.385Z,72.27
2022-08-11T05:52:12.985Z,71.87
2022-08-11T05:53:09.197Z,72.07
2022-08-11T05:54:07.293Z,71.97
2022-08-11T05:55:08.270Z,72.47
2022-08-11T05:56:08.260Z,71.53
2022-08-11T05:57:07.254Z,72.24
2022-08-11T05:58:07.237Z,71.23
2022-08-11T05:59:07.228Z,71.43
2022-08-11T06:00:07.217Z,72.00
2022-08-11T06:01:07.253Z,72.30
2022-08-11T06:02:07.206Z,71.30
2022-08-11T06:03:07.203Z,71.30
2022-08-11T06:04:07.185Z,71.70
2022-08-11T06:05:07.171Z,71.50
2022-08-11T06:06:07.156Z,71.90
2022-08-11T06:07:07.758Z,71.47
2022-08-11T06:08:07.129Z,70.09
2022-08-11T06:09:07.138Z,70.39
2022-08-11T06:10:07.110Z,70.16
2022-08-11T06:11:07.116Z,69.65
2022-08-11T06:12:07.086Z,70.16
2022-08-11T06:13:07.089Z,69.65
2022-08-11T06:14:07.063Z,69.85
2022-08-11T06:15:07.059Z,70.16
2022-08-11T06:16:07.341Z,69.62
2022-08-11T06:17:07.057Z,70.16
2022-08-11T06:18:07.012Z,69.52
2022-08-11T06:19:09.757Z,69.72
2022-08-11T06:20:07.612Z,69.42
2022-08-11T06:21:07.010Z,70.03
2022-08-11T06:22:06.981Z,69.12
2022-08-11T06:23:06.969Z,68.21
2022-08-11T06:24:06.955Z,69.22
2022-08-11T06:25:06.941Z,68.92
2022-08-11T06:26:06.951Z,68.38
2022-08-11T06:27:12.656Z,68.68
2022-08-11T06:28:07.905Z,69.09
2022-08-11T06:29:06.907Z,69.59
2022-08-11T06:30:06.888Z,69.29
2022-08-11T06:31:07.279Z,69.09
2022-08-11T06:32:06.871Z,67.95
2022-08-11T06:33:06.860Z,68.55
2022-08-11T06:34:07.288Z,68.85
2022-08-11T06:35:06.836Z,67.65
2022-08-11T06:36:06.844Z,68.65
2022-08-11T06:37:06.811Z,68.72
2022-08-11T06:38:06.810Z,67.61
2022-08-11T06:39:07.759Z,67.55
2022-08-11T06:40:06.780Z,67.92
2022-08-11T06:41:06.766Z,67.61
2022-08-11T06:42:06.780Z,67.42
2022-08-11T06:43:06.746Z,67.61
2022-08-11T06:44:06.742Z,67.38
2022-08-11T06:45:06.725Z,67.38
2022-08-11T06:46:06.719Z,66.08
2022-08-11T06:47:06.785Z,66.38
2022-08-11T06:48:06.702Z,65.88
2022-08-11T06:49:06.699Z,65.95
2022-08-11T06:50:06.677Z,65.95
2022-08-11T06:51:06.666Z,65.75
2022-08-11T06:52:06.650Z,66.05
2022-08-11T06:53:06.644Z,65.65
2022-08-11T06:54:07.264Z,65.85
2022-08-11T06:55:06.694Z,65.82
2022-08-11T06:56:09.263Z,65.42
2022-08-11T06:57:29.266Z,65.52
2022-08-11T06:58:07.588Z,65.62
2022-08-11T06:59:07.636Z,64.81
2022-08-11T07:00:06.578Z,66.12
2022-08-11T07:01:06.612Z,65.52
2022-08-11T07:02:09.257Z,64.18
2022-08-11T07:03:06.540Z,64.98
2022-08-11T07:04:06.534Z,65.09
2022-08-11T07:05:06.509Z,63.58
2022-08-11T07:06:06.500Z,63.45
2022-08-11T07:07:06.482Z,63.75
2022-08-11T07:08:33.874Z,63.65
2022-08-11T07:09:07.493Z,63.56
2022-08-11T07:10:06.468Z,63.25
2022-08-11T07:11:06.445Z,63.56
2022-08-11T07:12:06.441Z,63.56
2022-08-11T07:13:06.425Z,63.32
2022-08-11T07:14:06.397Z,62.75
2022-08-11T07:15:06.401Z,63.62
2022-08-11T07:16:12.580Z,62.32
2022-08-11T07:17:07.376Z,61.52
2022-08-11T07:18:06.356Z,60.69
2022-08-11T07:19:06.347Z,60.69
2022-08-11T07:20:07.260Z,60.79
2022-08-11T07:21:06.339Z,60.77
2022-08-11T07:22:07.322Z,61.26
2022-08-11T07:23:06.329Z,61.66
2022-08-11T07:24:06.294Z,62.46
2022-08-11T07:25:06.294Z,60.66
2022-08-11T07:26:06.270Z,61.04
2022-08-11T07:27:06.268Z,61.24
2022-08-11T07:28:06.257Z,61.93
2022-08-11T07:29:06.266Z,61.24
2022-08-11T07:30:06.237Z,61.13
2022-08-11T07:31:06.218Z,61.13
2022-08-11T07:32:06.201Z,61.04
2022-08-11T07:33:06.192Z,61.24
2022-08-11T07:34:11.174Z,60.83
2022-08-11T07:35:07.193Z,60.33
2022-08-11T07:36:06.183Z,60.44
2022-08-11T07:37:06.157Z,60.33
2022-08-11T07:38:07.265Z,59.53
2022-08-11T07:39:06.131Z,60.11
2022-08-11T07:40:06.155Z,60.31
2022-08-11T07:41:06.106Z,60.00
2022-08-11T07:42:06.129Z,59.70
2022-08-11T07:43:06.097Z,59.11
2022-08-11T07:44:06.080Z,60.21
2022-08-11T07:45:06.070Z,58.28
2022-08-11T07:46:06.783Z,58.15
2022-08-11T07:47:06.071Z,59.35
2022-08-11T07:48:06.047Z,57.26
2022-08-11T07:49:06.031Z,58.55
2022-08-11T07:50:06.019Z,58.36
2022-08-11T07:51:06.777Z,59.22
2022-08-11T07:52:06.006Z,59.05
2022-08-11T07:53:05.976Z,59.02
2022-08-11T07:54:16.083Z,57.86
2022-08-11T07:55:07.790Z,58.55
2022-08-11T07:56:05.953Z,58.15
2022-08-11T07:57:09.536Z,57.23
2022-08-11T07:58:16.613Z,58.23
2022-08-11T07:59:08.363Z,57.46
2022-08-11T08:00:05.921Z,57.65
2022-08-11T08:01:09.873Z,58.03
2022-08-11T08:02:08.826Z,59.52
2022-08-11T08:03:05.876Z,57.63
2022-08-11T08:04:05.879Z,57.10
2022-08-11T08:05:05.847Z,57.50
2022-08-11T08:06:05.834Z,56.01
2022-08-11T08:07:06.818Z,56.81
2022-08-11T08:08:05.848Z,56.70
2022-08-11T08:09:06.312Z,56.38
2022-08-11T08:10:05.804Z,55.78
2022-08-11T08:11:05.798Z,55.48
2022-08-11T08:12:05.779Z,57.17
2022-08-11T08:13:05.758Z,57.47
2022-08-11T08:14:05.751Z,57.37
2022-08-11T08:15:05.817Z,57.28
2022-08-11T08:16:05.731Z,56.08
2022-08-11T08:17:05.718Z,56.05
2022-08-11T08:18:09.015Z,55.46
2022-08-11T08:19:06.695Z,56.95
2022-08-11T08:20:05.705Z,57.54
2022-08-11T08:21:05.671Z,55.26
2022-08-11T08:22:37.818Z,54.73
2022-08-11T08:23:06.810Z,54.41
2022-08-11T08:24:05.641Z,54.50
2022-08-11T08:25:05.630Z,53.51
2022-08-11T08:26:16.857Z,53.21
2022-08-11T08:27:13.276Z,53.94
2022-08-11T08:28:05.616Z,54.33
2022-08-11T08:29:05.621Z,54.93
2022-08-11T08:30:05.579Z,54.03
2022-08-11T08:31:05.564Z,54.60
2022-08-11T08:32:05.568Z,53.91
2022-08-11T08:33:05.579Z,54.11
2022-08-11T08:34:05.552Z,53.71
2022-08-11T08:35:05.597Z,54.78
2022-08-11T08:36:05.519Z,54.08
2022-08-11T08:37:16.009Z,52.49
2022-08-11T08:38:06.518Z,53.19
2022-08-11T08:39:05.490Z,53.69
2022-08-11T08:40:05.475Z,52.49
2022-08-11T08:41:05.457Z,52.24
2022-08-11T08:42:06.278Z,51.05
2022-08-11T08:43:05.442Z,52.74
2022-08-11T08:45:06.418Z,51.92
2022-08-11T08:46:05.436Z,52.22
2022-08-11T08:47:05.397Z,51.25
2022-08-11T08:48:05.391Z,51.95
2022-08-11T08:49:05.373Z,52.31
2022-08-11T08:50:05.812Z,52.24
2022-08-11T08:51:07.986Z,51.95
2022-08-11T08:52:27.799Z,51.84
2022-08-11T08:53:07.284Z,52.64
2022-08-11T08:54:05.344Z,53.04
2022-08-11T08:55:06.278Z,51.84
2022-08-11T08:56:05.309Z,52.47
2022-08-11T08:57:05.435Z,51.95
2022-08-11T08:58:05.788Z,53.33
2022-08-11T08:59:05.261Z,52.74
2022-08-11T09:00:05.306Z,52.44
2022-08-11T09:01:05.319Z,52.44
2022-08-11T09:02:05.234Z,52.44
2022-08-11T09:03:22.978Z,53.53
2022-08-11T09:04:11.383Z,53.14
2022-08-11T09:05:06.207Z,52.64
2022-08-11T09:06:05.191Z,51.75
2022-08-11T09:07:05.177Z,52.61
2022-08-11T09:08:05.161Z,51.03
2022-08-11T09:09:05.154Z,49.91
2022-08-11T09:10:05.139Z,50.51
2022-08-11T09:11:05.170Z,51.18
2022-08-11T09:12:05.123Z,50.48
2022-08-11T09:13:05.120Z,50.38
2022-08-11T09:14:09.260Z,51.57
2022-08-11T09:15:06.080Z,50.60
2022-08-11T09:16:07.789Z,51.10
2022-08-11T09:17:05.080Z,51.20
2022-08-11T09:18:05.054Z,50.11
2022-08-11T09:19:05.049Z,49.99
2022-08-11T09:20:05.030Z,49.88
2022-08-11T09:21:05.805Z,49.99
2022-08-11T09:22:05.003Z,49.88
2022-08-11T09:24:13.094Z,50.23
2022-08-11T09:25:05.972Z,48.35
2022-08-11T09:26:04.973Z,48.92
2022-08-11T09:27:04.947Z,48.25
2022-08-11T09:28:05.796Z,48.23
2022-08-11T09:29:05.820Z,48.33
2022-08-11T09:30:05.798Z,47.53
2022-08-11T09:31:07.791Z,47.61
2022-08-11T09:32:04.911Z,46.92
2022-08-11T09:33:04.952Z,47.61
2022-08-11T09:34:04.921Z,47.31
2022-08-11T09:35:04.884Z,47.61
2022-08-11T09:36:04.869Z,46.52
2022-08-11T09:37:04.842Z,46.72
2022-08-11T09:38:04.839Z,47.71
2022-08-11T09:39:04.889Z,46.33
2022-08-11T09:40:04.832Z,45.93
2022-08-11T09:41:04.805Z,44.64
2022-08-11T09:42:04.792Z,45.71
2022-08-11T09:43:04.784Z,45.21
2022-08-11T09:44:04.790Z,46.48
2022-08-11T09:45:04.776Z,46.78
2022-08-11T09:46:04.761Z,45.09
2022-08-11T09:47:04.743Z,44.97
2022-08-11T09:48:04.729Z,44.68
2022-08-11T09:49:04.711Z,44.65
2022-08-11T09:50:04.718Z,44.06
2022-08-11T09:51:04.714Z,43.66
2022-08-11T09:52:05.448Z,44.43
2022-08-11T09:53:37.343Z,45.03
2022-08-11T09:54:05.658Z,42.36
2022-08-11T09:55:04.652Z,43.55
2022-08-11T09:56:04.653Z,43.35
2022-08-11T09:57:05.477Z,42.54
2022-08-11T09:58:04.625Z,42.54
2022-08-11T09:59:04.627Z,41.75
2022-08-11T10:00:12.762Z,41.55
2022-08-11T10:01:08.381Z,39.87
2022-08-11T10:02:04.607Z,41.57
2022-08-11T10:03:04.564Z,41.67
2022-08-11T10:04:04.577Z,42.34
2022-08-11T10:05:04.526Z,42.54
2022-08-11T10:06:07.845Z,42.36
2022-08-11T10:07:05.108Z,43.52
2022-08-11T10:08:04.520Z,43.23
2022-08-11T10:09:04.518Z,43.80
2022-08-11T10:10:04.493Z,41.83
2022-08-11T10:11:04.476Z,43.90
2022-08-11T10:12:04.466Z,44.49
2022-08-11T10:13:04.459Z,45.57
2022-08-11T10:14:32.253Z,41.83
2022-08-11T10:15:05.484Z,43.59
2022-08-11T10:16:16.397Z,42.22
2022-08-11T10:17:05.416Z,43.80
2022-08-11T10:18:04.415Z,42.69
2022-08-11T10:19:04.392Z,42.30
2022-08-11T10:20:05.909Z,41.81
2022-08-11T10:21:04.399Z,40.43
2022-08-11T10:22:05.307Z,42.40
2022-08-11T10:23:04.359Z,42.60
2022-08-11T10:24:06.019Z,42.10
2022-08-11T10:25:04.329Z,41.69
2022-08-11T10:26:04.336Z,42.18
2022-08-11T10:27:07.305Z,43.86
2022-08-11T10:28:28.866Z,42.07
2022-08-11T10:29:13.058Z,41.17
2022-08-11T10:30:05.277Z,40.69
2022-08-11T10:31:04.812Z,40.19
2022-08-11T10:32:04.802Z,41.06
2022-08-11T10:33:18.968Z,41.35
2022-08-11T10:34:08.821Z,42.44
2022-08-11T10:35:04.244Z,41.75
2022-08-11T10:36:16.605Z,41.85
2022-08-11T10:37:05.805Z,40.88
2022-08-11T10:38:08.622Z,40.37
2022-08-11T10:39:05.189Z,39.86
2022-08-11T10:40:04.177Z,39.86
2022-08-11T10:41:04.345Z,38.38
2022-08-11T10:42:09.603Z,39.86
2022-08-11T10:43:05.154Z,39.94
2022-08-11T10:44:04.303Z,39.37
2022-08-11T10:45:04.128Z,38.85
2022-08-11T10:46:04.355Z,39.64
2022-08-11T10:47:04.123Z,40.61
2022-08-11T10:48:04.089Z,41.69
2022-08-11T10:49:04.817Z,40.90
2022-08-11T10:50:05.222Z,39.54
2022-08-11T10:51:04.852Z,41.61
2022-08-11T10:52:04.047Z,40.33
2022-08-11T10:53:04.046Z,40.33
2022-08-11T10:54:04.838Z,41.90
2022-08-11T10:55:04.023Z,40.13
2022-08-11T10:57:04.026Z,38.34
2022-08-11T10:58:04.271Z,37.46
2022-08-11T10:59:04.819Z,39.32
2022-08-11T11:00:04.333Z,38.54
2022-08-11T11:01:04.043Z,38.64
2022-08-11T11:02:04.335Z,38.05
2022-08-11T11:03:16.772Z,38.74
2022-08-11T11:04:04.913Z,36.99
2022-08-11T11:05:04.816Z,39.82
2022-08-11T11:06:28.728Z,40.03
2022-08-11T11:07:05.813Z,39.25
2022-08-11T11:08:03.899Z,38.74
2022-08-11T11:09:04.973Z,38.05
2022-08-11T11:10:03.856Z,38.44
2022-08-11T11:11:03.842Z,37.87
2022-08-11T11:12:03.839Z,38.66
2022-08-11T11:13:03.854Z,39.34
2022-08-11T11:14:03.815Z,39.15
2022-08-11T11:15:10.317Z,37.87
2022-08-11T11:16:04.795Z,38.64
2022-08-11T11:17:03.763Z,39.52
2022-08-11T11:18:03.765Z,37.15
2022-08-11T11:19:03.785Z,38.64
2022-08-11T11:20:03.753Z,39.01
2022-08-11T11:21:03.732Z,37.93
2022-08-11T11:22:10.321Z,38.92
2022-08-11T11:23:03.708Z,38.50
2022-08-11T11:24:03.706Z,37.40
2022-08-11T11:25:03.842Z,35.36
2022-08-11T11:26:03.705Z,38.21
2022-08-11T11:27:06.315Z,37.82
2022-08-11T11:28:03.655Z,38.88
2022-08-11T11:29:03.653Z,38.88
2022-08-11T11:30:03.650Z,39.54
2022-08-11T11:31:03.862Z,37.11
2022-08-11T11:32:03.613Z,37.88
2022-08-11T11:33:03.608Z,38.46
2022-08-11T11:34:06.507Z,37.99
2022-08-11T11:35:05.325Z,37.30
2022-08-11T11:36:03.849Z,38.88
2022-08-11T11:37:03.585Z,39.27
2022-08-11T11:38:08.371Z,38.66
2022-08-11T11:39:10.395Z,40.13
2022-08-11T11:40:10.335Z,36.60
2022-08-11T11:41:03.526Z,39.15
2022-08-11T11:42:03.527Z,38.93
2022-08-11T11:43:03.509Z,36.29
2022-08-11T11:44:04.328Z,37.17
2022-08-11T11:45:03.481Z,36.19
2022-08-11T11:46:03.473Z,37.17
2022-08-11T11:47:03.463Z,35.99
2022-08-11T11:48:03.451Z,37.96
2022-08-11T11:49:03.449Z,37.17
2022-08-11T11:50:04.430Z,36.58
2022-08-11T11:51:03.406Z,36.98
2022-08-11T11:52:03.408Z,38.35
2022-08-11T11:53:03.416Z,35.88
2022-08-11T11:54:03.390Z,35.19
2022-08-11T11:55:03.401Z,35.89
2022-08-11T11:56:03.372Z,35.19
2022-08-11T11:57:04.322Z,37.65
2022-08-11T11:58:03.352Z,36.84
2022-08-11T11:59:03.331Z,36.16
2022-08-11T12:00:03.331Z,36.55
2022-08-11T12:01:03.365Z,36.74
2022-08-11T12:02:11.640Z,36.45
2022-08-11T12:03:04.302Z,36.55
2022-08-11T12:04:03.293Z,38.90
2022-08-11T12:05:03.359Z,35.86
2022-08-11T12:06:03.262Z,34.30
2022-08-11T12:07:03.262Z,35.78
2022-08-11T12:08:05.285Z,36.37
2022-08-11T12:09:04.237Z,35.78
2022-08-11T12:10:03.227Z,37.43
2022-08-11T12:11:03.233Z,37.63
2022-08-11T12:12:03.202Z,37.43
2022-08-11T12:13:03.188Z,35.94
2022-08-11T12:14:03.180Z,36.32
2022-08-11T12:15:04.168Z,36.12
2022-08-11T12:16:32.826Z,35.93
2022-08-11T12:17:04.166Z,35.53
2022-08-11T12:18:03.144Z,35.73
2022-08-11T12:19:03.128Z,36.61
2022-08-11T12:20:03.119Z,35.53
2022-08-11T12:21:03.099Z,35.96
2022-08-11T12:22:03.117Z,36.35
2022-08-11T12:23:03.083Z,36.25
2022-08-11T12:24:04.601Z,35.57
2022-08-11T12:25:03.072Z,35.65
2022-08-11T12:26:26.520Z,34.75
2022-08-11T12:27:19.361Z,34.36
2022-08-11T12:28:03.034Z,34.28
2022-08-11T12:29:03.037Z,34.57
2022-08-11T12:30:05.878Z,34.67
2022-08-11T12:31:04.043Z,35.45
2022-08-11T12:32:02.999Z,34.65
2022-08-11T12:33:02.983Z,34.38
2022-08-11T12:34:02.981Z,34.96
2022-08-11T12:35:02.978Z,35.96
2022-08-11T12:36:02.959Z,36.35
2022-08-11T12:37:02.968Z,35.35
2022-08-11T12:38:09.450Z,36.04
2022-08-11T12:39:06.145Z,34.57
2022-08-11T12:40:16.478Z,33.90
2022-08-11T12:41:19.393Z,35.66
2022-08-11T12:42:04.026Z,38.51
2022-08-11T12:43:03.996Z,36.92
2022-08-11T12:44:02.904Z,37.00
2022-08-11T12:45:02.877Z,37.77
2022-08-11T12:46:02.867Z,37.57
2022-08-11T12:47:02.846Z,36.59
2022-08-11T12:48:57.795Z,34.13
2022-08-11T12:49:04.099Z,35.40
2022-08-11T12:50:02.810Z,34.70
2022-08-11T12:51:02.819Z,33.82
2022-08-11T12:52:13.023Z,33.54
2022-08-11T12:53:03.790Z,34.13
2022-08-11T12:54:02.793Z,35.81
2022-08-11T12:55:02.795Z,35.14